createdAt,value
2019-04-22T00:00:10.686Z,7.58
2019-04-22T00:02:48.963Z,7.10
2019-04-22T00:05:36.924Z,7.35
2019-04-22T00:08:08.993Z,7.37
2019-04-22T00:10:50.367Z,7.35
2019-04-22T00:13:23.755Z,7.10
2019-04-22T00:15:41.821Z,7.50
2019-04-22T00:18:22.385Z,7.70
2019-04-22T00:20:59.803Z,7.40
2019-04-22T00:23:23.471Z,7.83
2019-04-22T00:26:01.651Z,8.75
2019-04-22T00:28:30.801Z,7.60
2019-04-22T00:31:16.911Z,6.78
2019-04-22T00:33:39.369Z,7.20
2019-04-22T00:36:23.317Z,7.58
2019-04-22T00:38:56.232Z,6.80
2019-04-22T00:41:28.633Z,7.87
2019-04-22T00:44:02.928Z,7.35
2019-04-22T00:46:31.471Z,6.85
2019-04-22T00:49:49.055Z,7.28
2019-04-22T00:51:33.592Z,7.28
2019-04-22T00:54:01.022Z,7.12
2019-04-22T00:56:32.818Z,7.67
2019-04-22T00:59:11.973Z,7.30
2019-04-22T01:01:37.196Z,7.40
2019-04-22T01:06:42.757Z,7.80
2019-04-22T01:09:17.356Z,7.97
2019-04-22T01:11:44.597Z,7.67
2019-04-22T01:14:22.066Z,7.00
2019-04-22T01:16:57.886Z,7.42
2019-04-22T01:19:23.580Z,6.85
2019-04-22T01:21:49.803Z,7.62
2019-04-22T01:24:22.252Z,7.37
2019-04-22T01:26:50.826Z,7.70
2019-04-22T01:29:19.642Z,7.03
2019-04-22T01:31:41.831Z,7.22
2019-04-22T01:34:32.211Z,7.12
2019-04-22T01:37:02.585Z,6.80
2019-04-22T01:39:43.715Z,7.15
2019-04-22T01:42:10.473Z,6.83
2019-04-22T01:47:21.296Z,6.40
2019-04-22T01:49:47.600Z,7.25
2019-04-22T01:52:17.024Z,6.47
2019-04-22T01:55:10.600Z,6.55
2019-04-22T01:57:27.027Z,6.90
2019-04-22T01:59:45.713Z,6.80
2019-04-22T02:02:30.399Z,6.62
2019-04-22T02:04:59.793Z,6.37
2019-04-22T02:07:29.540Z,7.15
2019-04-22T02:10:02.331Z,6.60
2019-04-22T02:12:33.382Z,6.87
2019-04-22T02:15:09.976Z,6.72
2019-04-22T02:17:37.188Z,6.60
2019-04-22T02:20:13.510Z,6.83
2019-04-22T02:28:40.122Z,6.72
2019-04-22T02:31:23.211Z,6.75
2019-04-22T02:41:26.389Z,6.42
2019-04-22T02:51:21.891Z,6.85
2019-04-22T02:59:04.245Z,6.92
2019-04-22T03:04:09.669Z,6.78
2019-04-22T03:09:03.818Z,6.72
2019-04-22T03:11:34.213Z,7.00
2019-04-22T03:19:22.798Z,7.17
2019-04-22T03:21:44.199Z,6.78
2019-04-22T03:24:28.950Z,6.62
2019-04-22T03:29:24.113Z,6.28
2019-04-22T03:42:10.011Z,6.33
2019-04-22T03:44:50.072Z,6.85
2019-04-22T03:47:24.066Z,6.80
2019-04-22T03:54:52.055Z,6.40
2019-04-22T03:59:48.194Z,6.03
2019-04-22T04:02:29.313Z,6.87
2019-04-22T04:05:05.329Z,6.85
2019-04-22T04:07:32.356Z,6.80
2019-04-22T04:10:00.387Z,6.28
2019-04-22T04:15:12.349Z,6.78
2019-04-22T04:22:56.324Z,6.53
2019-04-22T04:25:24.197Z,6.92
2019-04-22T04:27:54.121Z,7.05
2019-04-22T04:35:23.720Z,6.37
2019-04-22T04:37:55.832Z,6.97
2019-04-22T04:43:00.889Z,6.40
2019-04-22T04:50:34.339Z,7.35
2019-04-22T04:55:28.188Z,6.78
2019-04-22T05:08:13.832Z,6.95
2019-04-22T05:10:53.729Z,6.75
2019-04-22T05:13:33.550Z,6.83
2019-04-22T05:18:26.543Z,6.95
2019-04-22T05:21:11.248Z,6.67
2019-04-22T05:23:25.090Z,7.30
2019-04-22T05:25:55.050Z,7.42
2019-04-22T05:30:43.725Z,7.20
2019-04-22T05:33:19.050Z,7.05
2019-04-22T05:35:46.389Z,7.53
2019-04-22T05:38:31.345Z,7.62
2019-04-22T05:40:54.587Z,7.97
2019-04-22T05:43:27.261Z,7.53
2019-04-22T05:45:57.871Z,7.60
2019-04-22T05:48:33.097Z,6.90
2019-04-22T05:51:03.740Z,7.25
2019-04-22T05:53:34.376Z,6.87
2019-04-22T05:56:09.980Z,7.05
2019-04-22T05:58:38.112Z,6.28
2019-04-22T06:03:46.067Z,6.75
2019-04-22T06:06:16.733Z,6.45
2019-04-22T06:08:48.720Z,6.28
2019-04-22T06:11:24.166Z,6.65
2019-04-22T06:13:50.157Z,6.47
2019-04-22T06:16:26.314Z,6.03
2019-04-22T06:19:03.185Z,6.12
2019-04-22T06:24:14.135Z,6.45
2019-04-22T06:26:47.187Z,5.72
2019-04-22T06:29:19.432Z,6.08
2019-04-22T06:32:03.648Z,5.80
2019-04-22T06:34:17.737Z,5.25
2019-04-22T06:39:27.822Z,5.65
2019-04-22T06:41:51.676Z,5.40
2019-04-22T06:46:52.061Z,5.50
2019-04-22T06:49:22.765Z,5.67
2019-04-22T06:52:00.160Z,5.60
2019-04-22T06:54:28.310Z,5.90
2019-04-22T06:57:02.451Z,5.33
2019-04-22T06:59:34.451Z,6.08
2019-04-22T07:02:04.516Z,5.28
2019-04-22T07:04:38.256Z,5.42
2019-04-22T07:07:08.338Z,5.33
2019-04-22T07:09:41.447Z,5.17
2019-04-22T07:12:15.560Z,5.40
2019-04-22T07:14:42.121Z,5.37
2019-04-22T07:17:30.925Z,5.65
2019-04-22T07:19:45.324Z,5.67
2019-04-22T07:22:18.557Z,6.35
2019-04-22T07:29:56.131Z,6.75
2019-04-22T07:32:40.091Z,6.00
2019-04-22T07:37:37.412Z,5.60
2019-04-22T07:39:56.971Z,6.37
2019-04-22T07:42:32.866Z,6.10
2019-04-22T07:45:05.035Z,5.85
2019-04-22T07:47:52.152Z,6.12
2019-04-22T07:50:12.826Z,5.95
2019-04-22T07:52:41.445Z,5.92
2019-04-22T07:55:07.096Z,5.20
2019-04-22T07:57:44.501Z,6.12
2019-04-22T08:00:16.000Z,5.72
2019-04-22T08:02:51.722Z,5.62
2019-04-22T08:05:22.310Z,5.70
2019-04-22T08:07:48.947Z,5.45
2019-04-22T08:10:30.190Z,5.42
2019-04-22T08:15:27.388Z,5.40
2019-04-22T08:20:35.022Z,5.42
2019-04-22T08:23:09.218Z,5.08
2019-04-22T08:25:38.797Z,5.17
2019-04-22T08:28:13.400Z,5.35
2019-04-22T08:30:50.693Z,5.35
2019-04-22T08:33:16.188Z,5.30
2019-04-22T08:36:00.876Z,5.37
2019-04-22T08:38:14.734Z,5.40
2019-04-22T08:41:39.209Z,5.60
2019-04-22T08:44:41.574Z,4.70
2019-04-22T08:46:34.764Z,5.17
2019-04-22T08:49:10.317Z,5.35
2019-04-22T08:51:49.097Z,5.28
2019-04-22T08:54:11.775Z,5.50
2019-04-22T08:56:43.980Z,5.05
2019-04-22T09:01:37.678Z,5.20
2019-04-22T09:04:11.973Z,5.40
2019-04-22T09:07:02.436Z,5.03
2019-04-22T09:09:21.225Z,5.28
2019-04-22T09:11:56.405Z,5.00
2019-04-22T09:14:26.656Z,4.95
2019-04-22T09:16:48.609Z,5.28
2019-04-22T09:19:27.064Z,4.72
2019-04-22T09:22:00.404Z,5.00
2019-04-22T09:24:29.210Z,4.65
2019-04-22T09:27:08.126Z,5.10
2019-04-22T09:29:34.018Z,4.80
2019-04-22T09:32:05.304Z,4.78
2019-04-22T09:37:17.974Z,5.03
2019-04-22T09:39:44.312Z,5.20
2019-04-22T09:42:09.105Z,5.17
2019-04-22T09:47:11.685Z,4.90
2019-04-22T09:50:01.519Z,5.20
2019-04-22T09:52:15.031Z,4.80
2019-04-22T09:57:21.122Z,5.05
2019-04-22T09:59:57.778Z,4.42
2019-04-22T10:05:00.166Z,4.78
2019-04-22T10:07:50.287Z,4.60
2019-04-22T10:10:11.213Z,4.83
2019-04-22T10:12:37.043Z,6.12
2019-04-22T10:15:07.900Z,4.75
2019-04-22T10:17:39.275Z,5.00
2019-04-22T10:20:10.214Z,4.90
2019-04-22T10:22:46.036Z,4.47
2019-04-22T10:25:21.449Z,5.15
2019-04-22T10:27:52.360Z,8.88
2019-04-22T10:30:31.559Z,6.40
2019-04-22T10:32:47.590Z,6.65
2019-04-22T10:35:15.452Z,6.58
2019-04-22T10:37:42.821Z,5.03
2019-04-22T10:40:34.638Z,5.20
2019-04-22T10:43:05.420Z,10.30
2019-04-22T10:45:36.212Z,10.25
2019-04-22T10:48:10.443Z,5.15
2019-04-22T10:50:43.574Z,5.60
2019-04-22T10:53:15.409Z,5.08
2019-04-22T10:55:47.709Z,4.92
2019-04-22T10:58:20.837Z,25.92
2019-04-22T11:00:52.271Z,9.13
2019-04-22T11:03:24.524Z,7.40
2019-04-22T11:05:54.833Z,6.55
2019-04-22T11:08:34.966Z,4.97
2019-04-22T11:11:12.388Z,5.22
2019-04-22T11:13:28.446Z,5.10
2019-04-22T11:15:58.823Z,4.53
2019-04-22T11:18:31.546Z,4.40
2019-04-22T11:21:02.023Z,4.62
2019-04-22T11:23:32.454Z,4.58
2019-04-22T11:26:03.900Z,5.03
2019-04-22T11:28:35.738Z,3.77
2019-04-22T11:31:06.255Z,4.60
2019-04-22T11:33:36.507Z,4.17
2019-04-22T11:36:08.016Z,4.67
2019-04-22T11:38:48.628Z,4.25
2019-04-22T11:41:09.936Z,3.90
2019-04-22T11:43:41.199Z,4.60
2019-04-22T11:46:11.549Z,5.28
2019-04-22T11:48:42.405Z,4.85
2019-04-22T11:51:13.820Z,4.58
2019-04-22T11:53:45.072Z,4.35
2019-04-22T11:56:16.821Z,4.00
2019-04-22T11:58:47.107Z,4.50
2019-04-22T12:01:17.118Z,6.83
2019-04-22T12:03:47.191Z,6.30
2019-04-22T12:06:18.010Z,5.53
2019-04-22T12:08:49.914Z,3.98
2019-04-22T12:11:20.713Z,3.75
2019-04-22T12:13:51.796Z,3.45
2019-04-22T12:16:23.212Z,4.00
2019-04-22T12:18:53.716Z,3.12
2019-04-22T12:21:24.155Z,3.60
2019-04-22T12:23:54.987Z,3.35
2019-04-22T12:26:26.917Z,4.40
2019-04-22T12:28:57.299Z,3.45
2019-04-22T12:31:27.562Z,3.22
2019-04-22T12:33:57.594Z,3.30
2019-04-22T12:36:28.670Z,3.50
2019-04-22T12:38:59.722Z,4.42
2019-04-22T12:41:31.024Z,3.47
2019-04-22T12:44:01.351Z,3.60
2019-04-22T12:46:32.330Z,3.47
2019-04-22T12:49:02.722Z,3.50
2019-04-22T12:51:33.285Z,3.50
2019-04-22T12:54:03.668Z,3.20
2019-04-22T12:56:33.806Z,3.67
2019-04-22T12:59:05.579Z,3.58
2019-04-22T13:01:37.304Z,3.75
2019-04-22T13:04:10.191Z,3.80
2019-04-22T13:06:39.895Z,3.60
2019-04-22T13:09:10.532Z,4.33
2019-04-22T13:11:42.251Z,3.20
2019-04-22T13:14:12.706Z,3.62
2019-04-22T13:16:43.032Z,3.40
2019-04-22T13:19:17.049Z,3.30
2019-04-22T13:21:45.130Z,3.37
2019-04-22T13:24:18.155Z,2.95
2019-04-22T13:26:48.526Z,2.80
2019-04-22T13:29:19.265Z,3.00
2019-04-22T13:31:50.593Z,2.72
2019-04-22T13:34:29.187Z,3.67
2019-04-22T13:36:52.960Z,2.80
2019-04-22T13:39:25.044Z,2.98
2019-04-22T13:42:00.460Z,3.05
2019-04-22T13:44:28.435Z,2.80
2019-04-22T13:47:14.758Z,3.00
2019-04-22T13:50:13.617Z,3.05
2019-04-22T13:52:40.329Z,3.08
2019-04-22T13:55:15.932Z,3.02
2019-04-22T13:57:24.947Z,3.12
2019-04-22T13:59:44.078Z,2.87
2019-04-22T14:02:38.529Z,2.62
2019-04-22T14:05:10.595Z,3.05
2019-04-22T14:07:41.094Z,3.30
2019-04-22T14:10:12.144Z,2.67
2019-04-22T14:12:42.684Z,2.90
2019-04-22T14:15:13.942Z,2.65
2019-04-22T14:17:45.396Z,3.25
2019-04-22T14:20:16.433Z,2.70
2019-04-22T14:22:46.440Z,2.80
2019-04-22T14:25:16.760Z,3.00
2019-04-22T14:27:54.492Z,3.00
2019-04-22T14:30:18.922Z,3.65
2019-04-22T14:32:48.978Z,2.70
2019-04-22T14:35:20.890Z,2.85
2019-04-22T14:37:52.276Z,2.72
2019-04-22T14:40:24.720Z,2.90
2019-04-22T14:43:13.480Z,2.70
2019-04-22T14:46:04.648Z,2.85
2019-04-22T14:48:27.851Z,3.20
2019-04-22T14:50:52.076Z,3.30
2019-04-22T14:53:21.718Z,2.90
2019-04-22T14:55:36.697Z,3.00
2019-04-22T14:58:06.829Z,3.10
2019-04-22T15:00:38.149Z,3.02
2019-04-22T15:03:09.937Z,3.10
2019-04-22T15:05:41.976Z,2.90
2019-04-22T15:08:13.147Z,2.77
2019-04-22T15:10:44.139Z,2.87
2019-04-22T15:13:15.583Z,2.52
2019-04-22T15:16:11.867Z,2.72
2019-04-22T15:19:05.492Z,2.62
2019-04-22T15:21:36.722Z,2.60
2019-04-22T15:24:27.345Z,2.90
2019-04-22T15:26:58.645Z,2.42
2019-04-22T15:29:31.395Z,2.50
2019-04-22T15:32:03.049Z,2.87
2019-04-22T15:34:34.609Z,3.12
2019-04-22T15:37:06.333Z,2.77
2019-04-22T15:39:36.660Z,3.00
2019-04-22T15:42:17.376Z,2.95
2019-04-22T15:44:39.985Z,3.00
2019-04-22T15:47:11.173Z,2.70
2019-04-22T15:49:42.240Z,2.72
2019-04-22T15:52:12.673Z,2.70
2019-04-22T15:54:43.781Z,2.50
2019-04-22T15:57:14.947Z,2.42
2019-04-22T16:00:05.275Z,2.62
2019-04-22T16:02:19.338Z,2.52
2019-04-22T16:04:50.626Z,2.70
2019-04-22T16:07:23.917Z,2.52
2019-04-22T16:09:53.866Z,2.55
2019-04-22T16:12:30.902Z,2.35
2019-04-22T16:14:57.449Z,2.40
2019-04-22T16:17:28.634Z,2.80
2019-04-22T16:19:59.405Z,3.00
2019-04-22T16:22:32.465Z,2.58
2019-04-22T16:25:25.106Z,2.70
2019-04-22T16:27:56.461Z,2.65
2019-04-22T16:30:27.781Z,2.83
2019-04-22T16:33:01.524Z,2.70
2019-04-22T16:35:32.761Z,2.50
2019-04-22T16:38:04.338Z,2.60
2019-04-22T16:40:34.759Z,2.33
2019-04-22T16:43:07.756Z,2.60
2019-04-22T16:45:37.796Z,2.72
2019-04-22T16:48:09.290Z,2.90
2019-04-22T16:50:42.810Z,2.40
2019-04-22T16:53:13.812Z,2.58
2019-04-22T16:55:44.529Z,2.58
2019-04-22T16:58:15.047Z,2.55
2019-04-22T17:00:46.940Z,2.58
2019-04-22T17:03:42.826Z,3.00
2019-04-22T17:06:19.417Z,2.60
2019-04-22T17:08:50.702Z,2.87
2019-04-22T17:11:22.147Z,2.60
2019-04-22T17:13:53.028Z,2.45
2019-04-22T17:16:24.366Z,2.55
2019-04-22T17:18:56.322Z,2.60
2019-04-22T17:21:27.762Z,2.52
2019-04-22T17:23:59.287Z,2.42
2019-04-22T17:26:30.437Z,2.65
2019-04-22T17:29:04.023Z,3.12
2019-04-22T17:31:32.276Z,2.20
2019-04-22T17:34:02.610Z,2.50
2019-04-22T17:36:33.965Z,2.30
2019-04-22T17:39:18.287Z,2.60
2019-04-22T17:41:59.419Z,2.30
2019-04-22T17:44:40.048Z,2.60
2019-04-22T17:47:30.323Z,2.80
2019-04-22T17:50:11.538Z,2.40
2019-04-22T17:52:36.519Z,2.40
2019-04-22T17:55:11.437Z,2.55
2019-04-22T17:57:39.208Z,2.50
2019-04-22T18:00:17.277Z,2.45
2019-04-22T18:02:45.838Z,2.60
2019-04-22T18:05:03.759Z,2.40
2019-04-22T18:07:52.595Z,2.20
2019-04-22T18:10:33.091Z,2.70
2019-04-22T18:13:01.934Z,2.25
2019-04-22T18:15:35.756Z,2.55
2019-04-22T18:18:09.125Z,2.83
2019-04-22T18:20:28.162Z,2.50
2019-04-22T18:22:54.632Z,2.58
2019-04-22T18:25:33.872Z,4.12
2019-04-22T18:28:15.185Z,3.12
2019-04-22T18:30:33.364Z,3.60
2019-04-22T18:33:13.293Z,3.77
2019-04-22T18:35:42.057Z,3.50
2019-04-22T18:38:28.172Z,4.08
2019-04-22T18:40:44.801Z,3.45
2019-04-22T18:43:25.978Z,4.00
2019-04-22T18:45:54.942Z,3.20
2019-04-22T18:48:12.209Z,3.95
2019-04-22T18:51:06.564Z,3.50
2019-04-22T18:53:52.031Z,3.62
2019-04-22T18:56:21.970Z,3.60
2019-04-22T18:58:45.844Z,3.75
2019-04-22T19:01:08.083Z,3.60
2019-04-22T19:03:51.089Z,3.90
2019-04-22T19:06:46.346Z,3.85
2019-04-22T19:09:05.318Z,3.67
2019-04-22T19:11:38.640Z,3.52
2019-04-22T19:14:06.021Z,3.47
2019-04-22T19:16:39.740Z,3.55
2019-04-22T19:19:29.786Z,3.65
2019-04-22T19:21:43.390Z,4.30
2019-04-22T19:24:09.046Z,4.10
2019-04-22T19:29:18.634Z,3.83
2019-04-22T19:31:52.351Z,3.47
2019-04-22T19:34:20.461Z,3.80
2019-04-22T19:36:57.267Z,3.20
2019-04-22T19:39:22.764Z,3.92
2019-04-22T19:42:00.886Z,3.85
2019-04-22T19:44:33.275Z,3.60
2019-04-22T19:47:19.582Z,3.80
2019-04-22T19:49:40.902Z,3.45
2019-04-22T19:52:24.549Z,3.62
2019-04-22T19:54:40.649Z,3.90
2019-04-22T19:57:05.839Z,3.98
2019-04-22T19:59:45.459Z,3.87
2019-04-22T20:02:33.168Z,3.90
2019-04-22T20:05:21.088Z,3.65
2019-04-22T20:07:41.851Z,3.52
2019-04-22T20:10:20.592Z,3.50
2019-04-22T20:12:42.880Z,3.40
2019-04-22T20:15:21.411Z,3.45
2019-04-22T20:18:19.166Z,3.40
2019-04-22T20:20:27.334Z,3.33
2019-04-22T20:22:52.354Z,3.17
2019-04-22T20:25:21.209Z,3.00
2019-04-22T20:28:01.258Z,3.10
2019-04-22T20:30:34.786Z,3.20
2019-04-22T20:32:59.498Z,2.80
2019-04-22T20:35:41.859Z,2.95
2019-04-22T20:38:08.755Z,2.62
2019-04-22T20:40:39.798Z,3.27
2019-04-22T20:43:17.910Z,2.40
2019-04-22T20:45:46.441Z,2.60
2019-04-22T20:48:06.019Z,2.60
2019-04-22T20:50:48.564Z,2.30
2019-04-22T20:53:26.775Z,2.60
2019-04-22T20:55:52.431Z,2.60
2019-04-22T20:58:30.177Z,3.10
2019-04-22T21:00:46.296Z,2.30
2019-04-22T21:03:20.906Z,2.80
2019-04-22T21:05:52.826Z,2.62
2019-04-22T21:08:38.946Z,2.77
2019-04-22T21:10:56.106Z,2.25
2019-04-22T21:13:27.833Z,2.52
2019-04-22T21:16:09.288Z,2.77
2019-04-22T21:18:36.139Z,2.55
2019-04-22T21:21:16.584Z,2.35
2019-04-22T21:23:41.279Z,2.75
2019-04-22T21:26:13.610Z,2.40
2019-04-22T21:28:49.036Z,2.80
2019-04-22T21:31:23.498Z,2.62
2019-04-22T21:33:51.598Z,2.77
2019-04-22T21:36:33.298Z,2.47
2019-04-22T21:38:54.139Z,2.65
2019-04-22T21:41:24.866Z,2.50
2019-04-22T21:43:58.052Z,2.55
2019-04-22T21:46:30.948Z,2.58
2019-04-22T21:49:09.414Z,2.37
2019-04-22T21:51:39.710Z,2.12
2019-04-22T21:54:11.766Z,2.67
2019-04-22T21:57:19.340Z,2.25
2019-04-22T21:59:40.227Z,2.50
2019-04-22T22:02:16.222Z,2.12
2019-04-22T22:04:44.480Z,2.42
2019-04-22T22:07:07.541Z,2.58
2019-04-22T22:09:47.136Z,2.40
2019-04-22T22:12:17.842Z,2.10
2019-04-22T22:14:55.835Z,2.65
2019-04-22T22:17:22.349Z,2.10
2019-04-22T22:19:52.913Z,2.10
2019-04-22T22:22:50.134Z,2.33
2019-04-22T22:25:04.584Z,2.58
2019-04-22T22:27:30.089Z,2.42
2019-04-22T22:30:26.752Z,2.47
2019-04-22T22:32:36.808Z,2.65
2019-04-22T22:35:12.108Z,2.58
2019-04-22T22:37:30.864Z,2.72
2019-04-22T22:40:00.873Z,2.75
2019-04-22T22:42:31.293Z,2.52
2019-04-22T22:45:07.754Z,2.80
2019-04-22T22:47:45.771Z,2.60
2019-04-22T22:50:23.312Z,2.65
2019-04-22T22:53:00.854Z,2.65
2019-04-22T22:55:28.916Z,2.55
2019-04-22T22:58:01.359Z,2.33
2019-04-22T23:00:28.722Z,2.20
2019-04-22T23:03:16.834Z,2.47
2019-04-22T23:05:37.581Z,3.00
2019-04-22T23:08:17.464Z,2.45
2019-04-22T23:10:52.915Z,2.77
2019-04-22T23:13:18.619Z,3.00
2019-04-22T23:15:38.464Z,2.87
2019-04-22T23:17:54.164Z,3.30
2019-04-22T23:20:31.118Z,3.83
2019-04-22T23:23:20.169Z,3.47
2019-04-22T23:25:56.733Z,3.65
2019-04-22T23:28:30.034Z,3.00
2019-04-22T23:31:25.052Z,3.17
2019-04-22T23:34:10.604Z,3.12
2019-04-22T23:36:56.352Z,3.22
2019-04-22T23:39:41.521Z,2.92
2019-04-22T23:42:14.179Z,2.75
2019-04-22T23:44:39.836Z,3.42
2019-04-22T23:47:08.705Z,2.92
2019-04-22T23:49:42.041Z,2.98
2019-04-22T23:52:19.154Z,3.12
2019-04-22T23:54:57.127Z,2.60
2019-04-22T23:57:24.170Z,2.58
2019-04-22T23:59:57.189Z,2.67
